Etusivu
METAR-TAF:

METAR-TAF

Lentoasemat :

Naha, Japani

Leveyspiiri: 26-11N, Pituuspiiri: 127-39E, korkeus merenpinnasta: 3 m

Tämänhetkinen sää

Tämä raportti tehtiin 30 minuuttia sitten, kello 05.30 UTC
Tuuli 9 kn etelästä
Lämpötila 29°C
Kosteus 89%
Ilmanpaine 1010 hPa
Näkyvyys 10 km tai enemmän
Muutamia pilviä 100 ft:n korkeudessa
Hajanaisia pilviä 300 ft:n korkeudessa
Hajonneita pilviä

METAR: ROAH 160530Z 19009KT 9999 FEW001 SCT003 BKN/// 29/27 Q1010

Aika: 15:00 (06:00 UTC)

Sääennuste

Tämä raportti tehtiin 52 minuuttia sitten, kello 05.08 UTC
Ennuste voimassa 16. päivästä klo 06 UTC - 17. päivään klo 12 UTC
Tuuli 10 kn etelästä
Näkyvyys 10 km tai enemmän
Muutamia pilviä 800 ft:n korkeudessa
Hajanaisia pilviä 1200 ft:n korkeudessa
Ajoittain
16. päivästä klo 09 UTC - 17. päivään klo 00 UTC
Muutamia pilviä 500 ft:n korkeudessa
Hajonneita pilviä 800 ft:n korkeudessa

TAF: ROAH 160508Z 1606/1712 18010KT 9999 FEW008 SCT012 TEMPO 1609/1700 FEW005 BKN008

Säähavainnot ja -ennusteet yli 4000 lentoasemalta (METAR- ja TAF-raportit).

Käytössä olevat sääasemat on merkitty karttaan keltaisilla ja punaisilla pisteillä.

Aseta hiiri pisteen päälle nähdäksesi sääaseman nimen.

Klikkaa sitten nähdäksesi säähavainnot ja -ennusteet.

Kartan vaihtaminen: klikkaa mustalla rastilla varustettuja vihreitä pisteitä, niin voit zoomata sisään; viivalla varustettua vihreää pistettä, niin voit zoomata ulos tai vihreitä nuolia, niin pääset viereisille kartoille.


METAR-TAF: